Alaró, Spain

4:13 PM CEST on August 26, 2016 (GMT +0200)
IILLESBA11 | | Change Station

Elev 712 ft 39.70 °N, 2.79 °E | Updated 7 minutes ago

Partly Cloudy
Partly Cloudy
88.6 °F
Feels Like 88.6 °F
N
6.0
Wind Variable Wind from SW
Gusts 6.0 mph

Today
High -- | Low -- °F
--% Chance of Precip.
Yesterday
High -- | Low -- °F
Precip. -- in
Pressure 30.04 in
Visibility 6.2 miles
Clouds Few 1600 ft
Dew Point 66.4 °F
Humidity 48%
Rainfall 0.00 in
Snow Depth Not available.
7:11 AM 8:28 PM
Waning Crescent, 34% visible
METAR LEPA 261400Z 23012KT 9999 FEW016 29/22 Q1017 NOSIG
Pressure 30.04 in
Visibility 6.2 miles
Clouds Few 1600 ft
Dew Point 66.4 °F
Humidity 48%
Rainfall 0.00 in
Snow Depth Not available.
7:11 AM 8:28 PM
Waning Crescent, 34% visible
METAR LEPA 261400Z 23012KT 9999 FEW016 29/22 Q1017 NOSIG

10-Day Weather Forecast

×

Almanac

Astronomy

Aug. 26, 2016 Rise Set
Actual Time
Civil Twilight
Nautical Twilight
Astronomical Twilight
Moon
Length of Visible Light
Length of Day
Tomorrow will be .
, % of the Moon is Illuminated

Today's Extremes

Country Highs Country Lows

Community

WunderPhotos

Upload Photos

1,935,084 photos uploaded!

WunderBlog® & News

Nearby

Air Quality

  Air Quality AQ Index Pollutant
Not available.

Snow Depth

Station Depth Elevation

Earthquake Activity

City Distance Mag. Time & Date
Minimum magnitude displayed is 2.5.

Coastal Water Temperatures

Place Temperature

Stations

Nearby Weather Stations

Station Location Temp. Windchill Dew Point Humidity Wind Precip. Elev Updated Type